sensor_id;sensor_type;location;lat;lon;timestamp;pressure;altitude;pressure_sealevel;temperature;humidity
45763;BME280;37512;52.408;13.356;2023-04-10T00:00:10;102121.09;;;5.78;100.00
45763;BME280;37512;52.408;13.356;2023-04-10T00:04:12;102113.72;;;5.74;100.00
45763;BME280;37512;52.408;13.356;2023-04-10T00:08:15;102111.59;;;5.71;100.00
45763;BME280;37512;52.408;13.356;2023-04-10T00:12:16;102105.69;;;5.77;100.00
45763;BME280;37512;52.408;13.356;2023-04-10T00:16:18;102111.25;;;5.72;100.00
45763;BME280;37512;52.408;13.356;2023-04-10T00:20:21;102105.63;;;5.63;100.00
45763;BME280;37512;52.408;13.356;2023-04-10T00:24:23;102106.94;;;5.28;100.00
45763;BME280;37512;52.408;13.356;2023-04-10T00:28:24;102096.94;;;5.13;100.00
45763;BME280;37512;52.408;13.356;2023-04-10T00:32:26;102089.19;;;5.15;100.00
45763;BME280;37512;52.408;13.356;2023-04-10T00:36:27;102084.78;;;5.38;100.00
45763;BME280;37512;52.408;13.356;2023-04-10T00:40:29;102078.75;;;5.36;100.00
45763;BME280;37512;52.408;13.356;2023-04-10T00:44:30;102078.78;;;5.12;100.00
45763;BME280;37512;52.408;13.356;2023-04-10T00:48:32;102079.84;;;4.92;100.00
45763;BME280;37512;52.408;13.356;2023-04-10T00:52:34;102074.47;;;4.82;100.00
45763;BME280;37512;52.408;13.356;2023-04-10T00:56:36;102071.25;;;4.75;100.00
45763;BME280;37512;52.408;13.356;2023-04-10T01:00:38;102069.84;;;4.77;100.00
45763;BME280;37512;52.408;13.356;2023-04-10T01:04:39;102063.69;;;4.86;100.00
45763;BME280;37512;52.408;13.356;2023-04-10T01:08:58;102058.19;;;4.86;100.00
45763;BME280;37512;52.408;13.356;2023-04-10T01:13:13;102075.34;;;4.77;100.00
45763;BME280;37512;52.408;13.356;2023-04-10T01:21:34;102072.22;;;4.36;100.00
45763;BME280;37512;52.408;13.356;2023-04-10T01:25:53;102068.28;;;4.42;100.00
45763;BME280;37512;52.408;13.356;2023-04-10T01:30:00;102070.81;;;4.38;100.00
45763;BME280;37512;52.408;13.356;2023-04-10T01:34:14;102069.06;;;4.48;100.00
45763;BME280;37512;52.408;13.356;2023-04-10T01:38:17;102070.34;;;4.31;100.00
45763;BME280;37512;52.408;13.356;2023-04-10T01:42:22;102067.72;;;4.16;100.00
45763;BME280;37512;52.408;13.356;2023-04-10T01:46:25;102068.06;;;4.38;100.00
45763;BME280;37512;52.408;13.356;2023-04-10T01:50:27;102066.38;;;4.43;100.00
45763;BME280;37512;52.408;13.356;2023-04-10T01:54:31;102066.88;;;3.86;100.00
45763;BME280;37512;52.408;13.356;2023-04-10T01:58:34;102067.19;;;4.14;100.00
45763;BME280;37512;52.408;13.356;2023-04-10T02:02:36;102063.09;;;4.11;100.00
45763;BME280;37512;52.408;13.356;2023-04-10T02:06:52;102066.28;;;3.89;100.00
45763;BME280;37512;52.408;13.356;2023-04-10T02:15:30;102069.19;;;4.03;100.00
45763;BME280;37512;52.408;13.356;2023-04-10T02:19:33;102064.50;;;4.09;100.00
45763;BME280;37512;52.408;13.356;2023-04-10T02:23:35;102062.75;;;4.18;100.00
45763;BME280;37512;52.408;13.356;2023-04-10T02:27:37;102060.66;;;4.05;100.00
45763;BME280;37512;52.408;13.356;2023-04-10T02:31:43;102052.75;;;3.98;100.00
45763;BME280;37512;52.408;13.356;2023-04-10T02:35:44;102059.50;;;3.37;100.00
45763;BME280;37512;52.408;13.356;2023-04-10T02:39:46;102068.41;;;3.63;100.00
45763;BME280;37512;52.408;13.356;2023-04-10T02:43:47;102062.91;;;3.63;100.00
45763;BME280;37512;52.408;13.356;2023-04-10T02:47:49;102070.69;;;3.85;100.00
45763;BME280;37512;52.408;13.356;2023-04-10T02:51:50;102062.84;;;3.73;100.00
45763;BME280;37512;52.408;13.356;2023-04-10T02:55:52;102061.09;;;3.88;100.00
45763;BME280;37512;52.408;13.356;2023-04-10T02:59:54;102061.31;;;3.57;100.00
45763;BME280;37512;52.408;13.356;2023-04-10T03:03:56;102074.00;;;3.87;100.00
45763;BME280;37512;52.408;13.356;2023-04-10T03:07:58;102069.56;;;3.91;100.00
45763;BME280;37512;52.408;13.356;2023-04-10T03:12:00;102063.00;;;3.87;100.00
45763;BME280;37512;52.408;13.356;2023-04-10T03:16:02;102059.00;;;3.69;100.00
45763;BME280;37512;52.408;13.356;2023-04-10T03:20:04;102071.34;;;3.77;100.00
45763;BME280;37512;52.408;13.356;2023-04-10T03:24:06;102057.88;;;3.75;100.00
45763;BME280;37512;52.408;13.356;2023-04-10T03:28:07;102055.44;;;3.69;100.00
45763;BME280;37512;52.408;13.356;2023-04-10T03:32:09;102059.72;;;3.85;100.00
45763;BME280;37512;52.408;13.356;2023-04-10T03:36:11;102057.88;;;3.75;100.00
45763;BME280;37512;52.408;13.356;2023-04-10T03:40:12;102059.56;;;3.71;100.00
45763;BME280;37512;52.408;13.356;2023-04-10T03:44:14;102065.47;;;3.49;100.00
45763;BME280;37512;52.408;13.356;2023-04-10T03:48:16;102058.47;;;3.72;100.00
45763;BME280;37512;52.408;13.356;2023-04-10T03:52:18;102063.31;;;3.81;100.00
45763;BME280;37512;52.408;13.356;2023-04-10T03:56:19;102058.69;;;3.76;100.00
45763;BME280;37512;52.408;13.356;2023-04-10T04:00:21;102062.28;;;3.71;100.00
45763;BME280;37512;52.408;13.356;2023-04-10T04:04:22;102064.28;;;3.66;100.00
45763;BME280;37512;52.408;13.356;2023-04-10T04:08:24;102065.03;;;3.71;100.00
45763;BME280;37512;52.408;13.356;2023-04-10T04:12:28;102060.63;;;3.75;100.00
45763;BME280;37512;52.408;13.356;2023-04-10T04:16:30;102064.16;;;3.81;100.00
45763;BME280;37512;52.408;13.356;2023-04-10T04:20:31;102059.38;;;3.58;100.00
45763;BME280;37512;52.408;13.356;2023-04-10T04:24:33;102064.50;;;3.74;100.00
45763;BME280;37512;52.408;13.356;2023-04-10T04:28:36;102070.41;;;3.52;100.00
45763;BME280;37512;52.408;13.356;2023-04-10T04:32:41;102073.72;;;3.49;100.00
45763;BME280;37512;52.408;13.356;2023-04-10T04:36:42;102064.97;;;3.82;100.00
45763;BME280;37512;52.408;13.356;2023-04-10T04:40:45;102065.34;;;4.04;100.00
45763;BME280;37512;52.408;13.356;2023-04-10T04:44:48;102065.78;;;4.16;100.00
45763;BME280;37512;52.408;13.356;2023-04-10T04:48:49;102067.19;;;4.14;100.00
45763;BME280;37512;52.408;13.356;2023-04-10T04:52:51;102072.75;;;4.04;100.00
45763;BME280;37512;52.408;13.356;2023-04-10T04:56:52;102068.00;;;3.80;100.00
45763;BME280;37512;52.408;13.356;2023-04-10T05:00:54;102066.38;;;4.13;100.00
45763;BME280;37512;52.408;13.356;2023-04-10T05:04:55;102069.41;;;4.12;100.00
45763;BME280;37512;52.408;13.356;2023-04-10T05:08:57;102069.72;;;4.05;100.00
45763;BME280;37512;52.408;13.356;2023-04-10T05:12:58;102075.00;;;3.96;100.00
45763;BME280;37512;52.408;13.356;2023-04-10T05:17:00;102070.53;;;4.06;100.00
45763;BME280;37512;52.408;13.356;2023-04-10T05:21:04;102069.81;;;4.29;100.00
45763;BME280;37512;52.408;13.356;2023-04-10T05:25:06;102074.97;;;4.36;100.00
45763;BME280;37512;52.408;13.356;2023-04-10T05:29:07;102083.38;;;4.45;100.00
45763;BME280;37512;52.408;13.356;2023-04-10T05:33:09;102084.34;;;4.59;100.00
45763;BME280;37512;52.408;13.356;2023-04-10T05:37:10;102083.59;;;4.77;100.00
45763;BME280;37512;52.408;13.356;2023-04-10T05:41:13;102079.09;;;4.87;100.00
45763;BME280;37512;52.408;13.356;2023-04-10T05:45:14;102087.50;;;4.71;100.00
45763;BME280;37512;52.408;13.356;2023-04-10T05:49:16;102090.38;;;4.61;100.00
45763;BME280;37512;52.408;13.356;2023-04-10T05:53:18;102096.03;;;4.70;100.00
45763;BME280;37512;52.408;13.356;2023-04-10T05:57:20;102091.28;;;5.23;100.00
45763;BME280;37512;52.408;13.356;2023-04-10T06:01:21;102081.13;;;5.43;100.00
45763;BME280;37512;52.408;13.356;2023-04-10T06:05:23;102088.69;;;5.70;100.00
45763;BME280;37512;52.408;13.356;2023-04-10T06:09:25;102082.00;;;5.95;100.00
45763;BME280;37512;52.408;13.356;2023-04-10T06:13:26;102090.78;;;5.97;100.00
45763;BME280;37512;52.408;13.356;2023-04-10T06:17:28;102084.41;;;6.35;100.00
45763;BME280;37512;52.408;13.356;2023-04-10T06:21:30;102084.63;;;6.05;100.00
45763;BME280;37512;52.408;13.356;2023-04-10T06:25:32;102083.81;;;6.52;100.00
45763;BME280;37512;52.408;13.356;2023-04-10T06:29:33;102081.91;;;6.80;100.00
45763;BME280;37512;52.408;13.356;2023-04-10T06:33:35;102074.84;;;6.87;100.00
45763;BME280;37512;52.408;13.356;2023-04-10T06:37:39;102080.78;;;7.08;100.00
45763;BME280;37512;52.408;13.356;2023-04-10T06:41:40;102074.09;;;7.37;100.00
45763;BME280;37512;52.408;13.356;2023-04-10T06:45:42;102068.53;;;7.51;100.00
45763;BME280;37512;52.408;13.356;2023-04-10T06:49:43;102064.59;;;7.66;100.00
45763;BME280;37512;52.408;13.356;2023-04-10T06:53:45;102071.06;;;7.84;100.00
45763;BME280;37512;52.408;13.356;2023-04-10T06:57:47;102071.44;;;7.91;100.00
45763;BME280;37512;52.408;13.356;2023-04-10T07:01:48;102065.97;;;8.00;100.00
45763;BME280;37512;52.408;13.356;2023-04-10T07:05:50;102055.50;;;8.10;100.00
45763;BME280;37512;52.408;13.356;2023-04-10T07:09:51;102052.38;;;8.34;100.00
45763;BME280;37512;52.408;13.356;2023-04-10T07:13:53;102056.53;;;8.23;100.00
45763;BME280;37512;52.408;13.356;2023-04-10T07:17:58;102059.53;;;8.35;100.00
45763;BME280;37512;52.408;13.356;2023-04-10T07:22:00;102055.28;;;8.29;100.00
45763;BME280;37512;52.408;13.356;2023-04-10T07:26:01;102067.72;;;8.41;100.00
45763;BME280;37512;52.408;13.356;2023-04-10T07:30:03;102063.25;;;8.53;100.00
45763;BME280;37512;52.408;13.356;2023-04-10T07:34:05;102061.94;;;8.51;100.00
45763;BME280;37512;52.408;13.356;2023-04-10T07:38:07;102063.31;;;8.71;100.00
45763;BME280;37512;52.408;13.356;2023-04-10T07:42:09;102058.63;;;8.71;100.00
45763;BME280;37512;52.408;13.356;2023-04-10T07:46:11;102057.31;;;8.77;100.00
45763;BME280;37512;52.408;13.356;2023-04-10T07:50:13;102052.19;;;9.02;100.00
45763;BME280;37512;52.408;13.356;2023-04-10T07:54:14;102051.91;;;9.21;100.00
45763;BME280;37512;52.408;13.356;2023-04-10T07:58:16;102052.22;;;9.11;100.00
45763;BME280;37512;52.408;13.356;2023-04-10T08:02:17;102042.16;;;9.58;100.00
45763;BME280;37512;52.408;13.356;2023-04-10T08:06:19;102034.50;;;9.81;100.00
45763;BME280;37512;52.408;13.356;2023-04-10T08:10:21;102038.31;;;10.33;100.00
45763;BME280;37512;52.408;13.356;2023-04-10T08:14:22;102035.41;;;10.20;100.00
45763;BME280;37512;52.408;13.356;2023-04-10T08:18:24;102029.38;;;10.10;100.00
45763;BME280;37512;52.408;13.356;2023-04-10T08:22:25;102035.13;;;9.96;100.00
45763;BME280;37512;52.408;13.356;2023-04-10T08:26:27;102033.88;;;10.49;100.00
45763;BME280;37512;52.408;13.356;2023-04-10T08:30:29;102026.91;;;10.73;100.00
45763;BME280;37512;52.408;13.356;2023-04-10T08:34:31;102025.09;;;10.77;100.00
45763;BME280;37512;52.408;13.356;2023-04-10T08:38:32;102029.88;;;10.67;100.00
45763;BME280;37512;52.408;13.356;2023-04-10T08:42:35;102024.00;;;10.60;100.00
45763;BME280;37512;52.408;13.356;2023-04-10T08:46:41;102016.91;;;10.80;100.00
45763;BME280;37512;52.408;13.356;2023-04-10T08:50:44;102015.28;;;11.30;100.00
45763;BME280;37512;52.408;13.356;2023-04-10T08:54:47;102016.91;;;11.73;100.00
45763;BME280;37512;52.408;13.356;2023-04-10T08:58:51;102014.78;;;12.49;100.00
45763;BME280;37512;52.408;13.356;2023-04-10T09:02:53;102002.72;;;12.82;100.00
45763;BME280;37512;52.408;13.356;2023-04-10T09:06:59;102002.25;;;12.67;100.00
45763;BME280;37512;52.408;13.356;2023-04-10T09:11:00;101995.38;;;13.14;100.00
45763;BME280;37512;52.408;13.356;2023-04-10T09:15:02;101995.19;;;12.58;100.00
45763;BME280;37512;52.408;13.356;2023-04-10T09:19:04;101975.72;;;13.35;100.00
45763;BME280;37512;52.408;13.356;2023-04-10T09:23:20;101969.59;;;13.17;100.00
45763;BME280;37512;52.408;13.356;2023-04-10T09:27:33;101957.53;;;13.53;97.51
45763;BME280;37512;52.408;13.356;2023-04-10T09:31:37;101957.88;;;13.11;93.45
45763;BME280;37512;52.408;13.356;2023-04-10T09:35:39;101964.78;;;13.86;88.07
45763;BME280;37512;52.408;13.356;2023-04-10T09:39:41;101947.38;;;14.21;84.39
45763;BME280;37512;52.408;13.356;2023-04-10T09:43:43;101940.59;;;14.70;84.20
45763;BME280;37512;52.408;13.356;2023-04-10T09:48:04;101938.09;;;14.17;79.48
45763;BME280;37512;52.408;13.356;2023-04-10T09:56:21;101929.25;;;14.98;74.57
45763;BME280;37512;52.408;13.356;2023-04-10T10:00:24;101922.81;;;15.33;72.03
45763;BME280;37512;52.408;13.356;2023-04-10T10:04:27;101919.25;;;15.36;71.21
45763;BME280;37512;52.408;13.356;2023-04-10T10:08:31;101916.16;;;15.02;70.87
45763;BME280;37512;52.408;13.356;2023-04-10T10:12:39;101910.28;;;14.88;71.92
45763;BME280;37512;52.408;13.356;2023-04-10T10:16:52;101899.97;;;15.50;70.57
45763;BME280;37512;52.408;13.356;2023-04-10T10:20:57;101897.50;;;14.71;73.28
45763;BME280;37512;52.408;13.356;2023-04-10T10:24:59;101893.72;;;14.98;73.44
45763;BME280;37512;52.408;13.356;2023-04-10T10:29:05;101891.59;;;15.11;71.65
45763;BME280;37512;52.408;13.356;2023-04-10T10:33:07;101886.59;;;15.82;70.47
45763;BME280;37512;52.408;13.356;2023-04-10T10:37:11;101885.22;;;15.73;69.62
45763;BME280;37512;52.408;13.356;2023-04-10T10:41:18;101874.03;;;16.76;63.32
45763;BME280;37512;52.408;13.356;2023-04-10T10:45:32;101867.69;;;16.79;60.49
45763;BME280;37512;52.408;13.356;2023-04-10T10:49:50;101850.69;;;16.95;58.57
45763;BME280;37512;52.408;13.356;2023-04-10T10:53:52;101858.53;;;16.02;64.68
45763;BME280;37512;52.408;13.356;2023-04-10T10:57:54;101854.13;;;16.54;60.99
45763;BME280;37512;52.408;13.356;2023-04-10T11:02:16;101842.44;;;17.43;59.00
45763;BME280;37512;52.408;13.356;2023-04-10T11:06:19;101834.56;;;17.59;58.63
45763;BME280;37512;52.408;13.356;2023-04-10T11:15:02;101828.38;;;16.75;59.54
45763;BME280;37512;52.408;13.356;2023-04-10T11:19:06;101821.50;;;17.37;57.88
45763;BME280;37512;52.408;13.356;2023-04-10T11:23:16;101815.59;;;17.90;54.46
45763;BME280;37512;52.408;13.356;2023-04-10T11:27:46;101801.84;;;17.77;54.63
45763;BME280;37512;52.408;13.356;2023-04-10T11:31:59;101804.41;;;17.93;53.82
45763;BME280;37512;52.408;13.356;2023-04-10T11:36:02;101804.97;;;17.65;55.69
45763;BME280;37512;52.408;13.356;2023-04-10T11:40:04;101793.31;;;17.63;54.52
45763;BME280;37512;52.408;13.356;2023-04-10T11:44:08;101784.75;;;17.97;53.60
45763;BME280;37512;52.408;13.356;2023-04-10T11:48:11;101785.38;;;17.72;56.10
45763;BME280;37512;52.408;13.356;2023-04-10T11:52:13;101778.63;;;18.39;54.39
45763;BME280;37512;52.408;13.356;2023-04-10T11:56:24;101765.69;;;19.30;51.24
45763;BME280;37512;52.408;13.356;2023-04-10T12:00:25;101763.69;;;19.37;50.68
45763;BME280;37512;52.408;13.356;2023-04-10T12:04:27;101759.31;;;18.34;51.27
45763;BME280;37512;52.408;13.356;2023-04-10T12:08:30;101755.50;;;18.75;51.30
45763;BME280;37512;52.408;13.356;2023-04-10T12:12:35;101743.34;;;18.56;51.64
45763;BME280;37512;52.408;13.356;2023-04-10T12:16:37;101741.09;;;18.87;49.99
45763;BME280;37512;52.408;13.356;2023-04-10T12:20:39;101729.09;;;19.12;49.07
45763;BME280;37512;52.408;13.356;2023-04-10T12:28:53;101723.41;;;20.19;47.54
45763;BME280;37512;52.408;13.356;2023-04-10T12:32:55;101723.28;;;20.52;44.93
45763;BME280;37512;52.408;13.356;2023-04-10T12:36:57;101721.84;;;19.61;44.99
45763;BME280;37512;52.408;13.356;2023-04-10T12:41:00;101710.78;;;18.41;46.26
45763;BME280;37512;52.408;13.356;2023-04-10T12:45:01;101703.34;;;19.67;45.44
45763;BME280;37512;52.408;13.356;2023-04-10T12:49:14;101691.84;;;20.60;42.85
45763;BME280;37512;52.408;13.356;2023-04-10T12:53:16;101684.00;;;19.94;43.19
45763;BME280;37512;52.408;13.356;2023-04-10T12:57:27;101682.34;;;18.68;45.46
45763;BME280;37512;52.408;13.356;2023-04-10T13:01:28;101661.44;;;18.62;46.04
45763;BME280;37512;52.408;13.356;2023-04-10T13:05:30;101667.16;;;19.15;44.21
45763;BME280;37512;52.408;13.356;2023-04-10T13:09:31;101656.69;;;19.59;43.09
45763;BME280;37512;52.408;13.356;2023-04-10T13:13:33;101641.47;;;19.02;44.10
45763;BME280;37512;52.408;13.356;2023-04-10T13:17:34;101638.22;;;19.15;43.97
45763;BME280;37512;52.408;13.356;2023-04-10T13:21:36;101619.28;;;19.76;43.32
45763;BME280;37512;52.408;13.356;2023-04-10T13:25:38;101622.97;;;19.12;42.86
45763;BME280;37512;52.408;13.356;2023-04-10T13:29:41;101604.81;;;19.60;42.88
45763;BME280;37512;52.408;13.356;2023-04-10T13:33:44;101590.00;;;20.44;41.59
45763;BME280;37512;52.408;13.356;2023-04-10T13:37:49;101580.22;;;20.59;41.87
45763;BME280;37512;52.408;13.356;2023-04-10T13:41:53;101585.81;;;19.96;41.59
45763;BME280;37512;52.408;13.356;2023-04-10T13:45:54;101567.16;;;20.20;40.67
45763;BME280;37512;52.408;13.356;2023-04-10T13:49:56;101558.25;;;20.33;41.40
45763;BME280;37512;52.408;13.356;2023-04-10T13:53:57;101560.50;;;20.59;40.64
45763;BME280;37512;52.408;13.356;2023-04-10T13:57:59;101552.94;;;19.47;42.31
45763;BME280;37512;52.408;13.356;2023-04-10T14:02:00;101540.50;;;20.36;41.38
45763;BME280;37512;52.408;13.356;2023-04-10T14:06:02;101530.72;;;19.77;41.75
45763;BME280;37512;52.408;13.356;2023-04-10T14:10:05;101531.56;;;19.63;41.68
45763;BME280;37512;52.408;13.356;2023-04-10T14:14:07;101517.34;;;19.99;40.95
45763;BME280;37512;52.408;13.356;2023-04-10T14:18:08;101522.75;;;19.69;41.12
45763;BME280;37512;52.408;13.356;2023-04-10T14:22:11;101522.31;;;19.67;41.19
45763;BME280;37512;52.408;13.356;2023-04-10T14:26:12;101514.13;;;20.01;39.77
45763;BME280;37512;52.408;13.356;2023-04-10T14:30:14;101507.44;;;20.40;40.50
45763;BME280;37512;52.408;13.356;2023-04-10T14:34:15;101501.06;;;20.29;41.24
45763;BME280;37512;52.408;13.356;2023-04-10T14:38:17;101488.28;;;20.17;40.33
45763;BME280;37512;52.408;13.356;2023-04-10T14:42:18;101496.75;;;20.13;40.17
45763;BME280;37512;52.408;13.356;2023-04-10T14:46:20;101481.31;;;19.62;41.09
45763;BME280;37512;52.408;13.356;2023-04-10T14:50:21;101477.88;;;18.72;42.63
45763;BME280;37512;52.408;13.356;2023-04-10T14:54:23;101471.84;;;19.09;42.42
45763;BME280;37512;52.408;13.356;2023-04-10T14:58:24;101467.06;;;18.85;42.73
45763;BME280;37512;52.408;13.356;2023-04-10T15:02:26;101465.44;;;18.58;43.41
45763;BME280;37512;52.408;13.356;2023-04-10T15:06:28;101458.19;;;17.93;44.20
45763;BME280;37512;52.408;13.356;2023-04-10T15:10:32;101445.56;;;17.44;45.13
45763;BME280;37512;52.408;13.356;2023-04-10T15:14:33;101436.47;;;17.83;45.04
45763;BME280;37512;52.408;13.356;2023-04-10T15:18:35;101431.72;;;18.05;44.81
45763;BME280;37512;52.408;13.356;2023-04-10T15:22:36;101430.09;;;18.04;44.40
45763;BME280;37512;52.408;13.356;2023-04-10T15:26:44;101421.28;;;18.05;43.54
45763;BME280;37512;52.408;13.356;2023-04-10T15:30:46;101425.25;;;17.86;44.58
45763;BME280;37512;52.408;13.356;2023-04-10T15:34:50;101413.88;;;17.47;44.81
45763;BME280;37512;52.408;13.356;2023-04-10T15:38:51;101395.44;;;17.39;44.77
45763;BME280;37512;52.408;13.356;2023-04-10T15:42:52;101398.13;;;17.17;44.37
45763;BME280;37512;52.408;13.356;2023-04-10T15:46:54;101392.09;;;17.15;44.59
45763;BME280;37512;52.408;13.356;2023-04-10T15:50:55;101374.03;;;16.98;45.11
45763;BME280;37512;52.408;13.356;2023-04-10T15:54:57;101372.88;;;17.06;45.31
45763;BME280;37512;52.408;13.356;2023-04-10T15:58:58;101370.59;;;17.48;43.83
45763;BME280;37512;52.408;13.356;2023-04-10T16:03:00;101369.00;;;17.58;43.93
45763;BME280;37512;52.408;13.356;2023-04-10T16:07:02;101349.75;;;17.38;43.83
45763;BME280;37512;52.408;13.356;2023-04-10T16:11:03;101338.16;;;17.54;43.66
45763;BME280;37512;52.408;13.356;2023-04-10T16:15:06;101334.59;;;18.00;42.36
45763;BME280;37512;52.408;13.356;2023-04-10T16:19:08;101328.56;;;17.87;42.36
45763;BME280;37512;52.408;13.356;2023-04-10T16:23:10;101318.13;;;18.31;41.91
45763;BME280;37512;52.408;13.356;2023-04-10T16:27:11;101299.94;;;18.68;41.19
45763;BME280;37512;52.408;13.356;2023-04-10T16:31:13;101308.50;;;18.28;41.89
45763;BME280;37512;52.408;13.356;2023-04-10T16:35:14;101304.09;;;18.24;41.62
45763;BME280;37512;52.408;13.356;2023-04-10T16:39:18;101304.50;;;17.83;42.21
45763;BME280;37512;52.408;13.356;2023-04-10T16:43:20;101291.19;;;17.40;42.51
45763;BME280;37512;52.408;13.356;2023-04-10T16:47:24;101287.94;;;17.09;43.81
45763;BME280;37512;52.408;13.356;2023-04-10T16:51:25;101279.13;;;17.14;44.38
45763;BME280;37512;52.408;13.356;2023-04-10T16:55:27;101274.66;;;16.88;44.25
45763;BME280;37512;52.408;13.356;2023-04-10T16:59:29;101274.25;;;16.86;44.40
45763;BME280;37512;52.408;13.356;2023-04-10T17:03:32;101262.59;;;16.81;45.04
45763;BME280;37512;52.408;13.356;2023-04-10T17:07:33;101257.75;;;16.78;44.82
45763;BME280;37512;52.408;13.356;2023-04-10T17:11:35;101243.25;;;16.54;44.81
45763;BME280;37512;52.408;13.356;2023-04-10T17:15:36;101239.47;;;16.18;45.68
45763;BME280;37512;52.408;13.356;2023-04-10T17:19:38;101228.56;;;16.05;45.95
45763;BME280;37512;52.408;13.356;2023-04-10T17:23:40;101231.28;;;15.91;46.86
45763;BME280;37512;52.408;13.356;2023-04-10T17:27:41;101226.88;;;15.42;47.91
45763;BME280;37512;52.408;13.356;2023-04-10T17:31:43;101215.69;;;15.42;47.81
45763;BME280;37512;52.408;13.356;2023-04-10T17:35:44;101209.09;;;15.23;47.97
45763;BME280;37512;52.408;13.356;2023-04-10T17:39:46;101199.50;;;15.21;47.95
45763;BME280;37512;52.408;13.356;2023-04-10T17:43:47;101189.81;;;15.08;48.37
45763;BME280;37512;52.408;13.356;2023-04-10T17:47:49;101183.25;;;14.93;49.30
45763;BME280;37512;52.408;13.356;2023-04-10T17:51:51;101173.59;;;14.87;49.60
45763;BME280;37512;52.408;13.356;2023-04-10T17:55:52;101172.59;;;14.64;50.21
45763;BME280;37512;52.408;13.356;2023-04-10T17:59:53;101165.34;;;14.60;50.90
45763;BME280;37512;52.408;13.356;2023-04-10T18:03:59;101162.97;;;14.32;51.94
45763;BME280;37512;52.408;13.356;2023-04-10T18:08:03;101159.66;;;14.22;52.13
45763;BME280;37512;52.408;13.356;2023-04-10T18:12:04;101169.53;;;14.13;53.08
45763;BME280;37512;52.408;13.356;2023-04-10T18:16:06;101167.44;;;14.06;53.28
45763;BME280;37512;52.408;13.356;2023-04-10T18:20:08;101163.66;;;13.91;53.63
45763;BME280;37512;52.408;13.356;2023-04-10T18:24:10;101165.06;;;13.78;53.82
45763;BME280;37512;52.408;13.356;2023-04-10T18:28:12;101167.44;;;13.79;54.42
45763;BME280;37512;52.408;13.356;2023-04-10T18:32:16;101163.28;;;13.66;55.02
45763;BME280;37512;52.408;13.356;2023-04-10T18:36:18;101155.72;;;13.67;55.53
45763;BME280;37512;52.408;13.356;2023-04-10T18:40:21;101152.69;;;13.52;55.80
45763;BME280;37512;52.408;13.356;2023-04-10T18:44:24;101151.34;;;13.43;56.02
45763;BME280;37512;52.408;13.356;2023-04-10T18:48:25;101143.50;;;13.48;56.07
45763;BME280;37512;52.408;13.356;2023-04-10T18:52:27;101148.34;;;13.28;56.55
45763;BME280;37512;52.408;13.356;2023-04-10T18:56:29;101140.28;;;13.23;56.91
45763;BME280;37512;52.408;13.356;2023-04-10T19:00:30;101126.59;;;13.14;56.75
45763;BME280;37512;52.408;13.356;2023-04-10T19:04:34;101117.69;;;13.05;57.11
45763;BME280;37512;52.408;13.356;2023-04-10T19:08:36;101109.31;;;13.05;57.39
45763;BME280;37512;52.408;13.356;2023-04-10T19:12:37;101106.53;;;13.05;56.76
45763;BME280;37512;52.408;13.356;2023-04-10T19:16:40;101099.22;;;12.97;56.85
45763;BME280;37512;52.408;13.356;2023-04-10T19:20:42;101099.91;;;12.90;56.75
45763;BME280;37512;52.408;13.356;2023-04-10T19:24:53;101099.03;;;12.86;56.04
45763;BME280;37512;52.408;13.356;2023-04-10T19:28:54;101090.75;;;12.90;55.70
45763;BME280;37512;52.408;13.356;2023-04-10T19:32:56;101079.47;;;12.83;55.95
45763;BME280;37512;52.408;13.356;2023-04-10T19:36:58;101074.94;;;12.74;56.15
45763;BME280;37512;52.408;13.356;2023-04-10T19:40:59;101067.78;;;12.73;55.44
45763;BME280;37512;52.408;13.356;2023-04-10T19:45:01;101068.81;;;12.65;54.96
45763;BME280;37512;52.408;13.356;2023-04-10T19:49:04;101066.78;;;12.62;55.33
45763;BME280;37512;52.408;13.356;2023-04-10T19:53:06;101055.53;;;12.55;54.73
45763;BME280;37512;52.408;13.356;2023-04-10T19:57:08;101051.44;;;12.49;54.70
45763;BME280;37512;52.408;13.356;2023-04-10T20:01:09;101044.94;;;12.41;54.84
45763;BME280;37512;52.408;13.356;2023-04-10T20:05:12;101037.75;;;12.40;54.59
45763;BME280;37512;52.408;13.356;2023-04-10T20:09:14;101018.50;;;12.31;54.90
45763;BME280;37512;52.408;13.356;2023-04-10T20:13:16;101009.34;;;12.31;53.53
45763;BME280;37512;52.408;13.356;2023-04-10T20:17:17;101005.28;;;12.25;53.63
45763;BME280;37512;52.408;13.356;2023-04-10T20:21:20;101000.13;;;12.27;52.92
45763;BME280;37512;52.408;13.356;2023-04-10T20:25:22;100986.28;;;12.30;53.06
45763;BME280;37512;52.408;13.356;2023-04-10T20:29:23;100983.44;;;12.27;52.67
45763;BME280;37512;52.408;13.356;2023-04-10T20:33:25;100973.00;;;12.20;52.35
45763;BME280;37512;52.408;13.356;2023-04-10T20:37:26;100964.78;;;12.27;51.95
45763;BME280;37512;52.408;13.356;2023-04-10T20:41:28;100957.91;;;12.21;52.17
45763;BME280;37512;52.408;13.356;2023-04-10T20:45:29;100967.94;;;12.06;52.09
45763;BME280;37512;52.408;13.356;2023-04-10T20:49:31;100965.50;;;12.24;52.24
45763;BME280;37512;52.408;13.356;2023-04-10T20:53:32;100957.81;;;12.18;52.02
45763;BME280;37512;52.408;13.356;2023-04-10T20:57:34;100974.81;;;12.12;52.01
45763;BME280;37512;52.408;13.356;2023-04-10T21:01:35;100955.00;;;12.14;51.89
45763;BME280;37512;52.408;13.356;2023-04-10T21:05:39;100964.44;;;12.09;52.05
45763;BME280;37512;52.408;13.356;2023-04-10T21:09:41;100955.59;;;12.04;52.06
45763;BME280;37512;52.408;13.356;2023-04-10T21:13:43;100950.78;;;12.01;52.60